Time;durP1;ratioP1;P1;durP2;ratioP2;P2;SDS_P1;SDS_P2;PMS_P1;PMS_P2;Temp;Humidity;BMP_temperature;BMP_pressure;BME280_temperature;BME280_humidity;BME280_pressure;Samples;Min_cycle;Max_cycle;Signal;HPM_P1;HPM_P2
2022/11/09 00:02:04;;;;;;;5.70;1.90;;;;;;;12.61;98.58;100490.63;5075198;28;20024;-34
2022/11/09 00:04:30;;;;;;;5.00;1.80;;;;;;;12.65;98.61;100498.25;5075229;28;20025;-34
2022/11/09 00:06:55;;;;;;;5.78;1.65;;;;;;;12.59;98.18;100490.06;5074695;28;20024;-34
2022/11/09 00:09:20;;;;;;;4.43;1.77;;;;;;;12.57;97.98;100472.38;5075231;28;20028;-34
2022/11/09 00:11:46;;;;;;;6.40;1.47;;;;;;;12.70;98.47;100498.31;5074865;28;20457;-34
2022/11/09 00:14:15;;;;;;;4.40;1.50;;;;;;;12.72;98.45;100496.97;5075040;28;20032;-34
2022/11/09 00:16:41;;;;;;;5.85;1.35;;;;;;;12.73;98.37;100495.88;5074827;28;20279;-34
2022/11/09 00:19:06;;;;;;;6.50;1.95;;;;;;;12.75;98.45;100490.22;5073788;28;20051;-34
2022/11/09 00:21:31;;;;;;;5.60;1.57;;;;;;;12.76;98.68;100486.44;5074946;28;20025;-34
2022/11/09 00:23:57;;;;;;;5.85;1.65;;;;;;;12.69;98.14;100483.94;5074350;28;20020;-34
2022/11/09 00:26:22;;;;;;;7.97;2.03;;;;;;;12.73;98.47;100493.19;5074173;28;20052;-34
2022/11/09 00:28:49;;;;;;;5.95;1.65;;;;;;;12.73;98.41;100492.38;5074983;28;20119;-34
2022/11/09 00:31:24;;;;;;;5.88;1.70;;;;;;;12.74;98.33;100494.03;5074229;28;20035;-34
2022/11/09 00:33:51;;;;;;;6.93;1.70;;;;;;;12.72;98.55;100485.31;5074450;28;20036;-34
2022/11/09 00:36:17;;;;;;;5.18;1.50;;;;;;;12.75;99.13;100496.47;5074227;28;20028;-34
2022/11/09 00:38:51;;;;;;;5.60;1.73;;;;;;;12.74;100.00;100483.19;5074355;28;20419;-34
2022/11/09 00:41:16;;;;;;;7.75;1.75;;;;;;;12.75;100.00;100484.81;5073777;28;20036;-34
2022/11/09 00:43:42;;;;;;;4.88;1.52;;;;;;;12.74;100.00;100489.41;5073998;28;20112;-34
2022/11/09 00:46:07;;;;;;;4.30;1.50;;;;;;;12.66;100.00;100475.47;5072699;28;20029;-34
2022/11/09 00:48:33;;;;;;;3.53;1.60;;;;;;;12.63;100.00;100477.59;5074157;28;20044;-34
2022/11/09 00:50:59;;;;;;;3.95;1.65;;;;;;;12.65;100.00;100479.25;5072599;28;20373;-34
2022/11/09 00:53:25;;;;;;;5.57;1.75;;;;;;;12.67;100.00;100483.34;5089831;28;20032;-34
2022/11/09 00:56:02;;;;;;;;;;;;;;;12.68;100.00;100486.88;5073760;28;20033;-34
2022/11/09 00:58:29;;;;;;;5.15;1.77;;;;;;;12.57;100.00;100480.53;5074150;28;19912;-34
2022/11/09 01:00:56;;;;;;;5.72;1.60;;;;;;;12.59;100.00;100483.78;5073580;28;20508;-34
2022/11/09 01:03:23;;;;;;;4.38;1.50;;;;;;;12.50;100.00;100472.59;5073242;28;20025;-34
2022/11/09 01:05:49;;;;;;;4.72;1.38;;;;;;;12.56;100.00;100478.88;5073294;28;20035;-34
2022/11/09 01:08:14;;;;;;;4.32;1.55;;;;;;;12.54;100.00;100487.28;5073502;28;20437;-34
2022/11/09 01:10:46;;;;;;;4.97;1.50;;;;;;;12.51;100.00;100473.41;5072284;28;20209;-33
2022/11/09 01:13:13;;;;;;;4.88;1.70;;;;;;;12.57;100.00;100489.47;5073975;28;20086;-33
2022/11/09 01:15:44;;;;;;;5.15;1.77;;;;;;;12.58;100.00;100491.09;5073256;28;20034;-34
2022/11/09 01:18:10;;;;;;;5.55;1.50;;;;;;;12.62;100.00;100486.00;5073603;28;20540;-34
2022/11/09 01:20:42;;;;;;;;;;;;;;;12.66;100.00;100499.88;5074363;28;20107;-34
2022/11/09 01:23:09;;;;;;;6.28;2.00;;;;;;;12.71;100.00;100498.06;5073937;28;19915;-34
2022/11/09 01:25:35;;;;;;;6.00;1.70;;;;;;;12.72;100.00;100504.28;5072978;28;20036;-34
2022/11/09 01:28:01;;;;;;;5.05;1.70;;;;;;;12.75;100.00;100498.38;5072862;28;20473;-34
2022/11/09 01:30:27;;;;;;;10.75;1.92;;;;;;;12.77;100.00;100504.34;5071724;28;20046;-34
2022/11/09 01:32:52;;;;;;;3.78;1.67;;;;;;;12.77;100.00;100509.78;5073286;28;20064;-34
2022/11/09 01:35:18;;;;;;;4.90;1.52;;;;;;;12.80;99.59;100512.00;5073643;28;20402;-34
2022/11/09 01:37:43;;;;;;;4.20;1.35;;;;;;;12.76;99.91;100502.72;5073269;28;20035;-34
2022/11/09 01:40:09;;;;;;;8.23;1.80;;;;;;;12.78;99.92;100511.41;5072671;28;20040;-34
2022/11/09 01:42:35;;;;;;;;;;;;;;;12.80;99.44;100504.66;5073896;28;20070;-34
2022/11/09 01:45:23;;;;;;;5.17;1.67;;;;;;;12.72;99.43;100496.97;5072915;28;19912;-34
2022/11/09 01:47:53;;;;;;;4.13;1.67;;;;;;;12.77;99.37;100510.59;5072750;28;20056;-34
2022/11/09 01:50:27;;;;;;;5.25;1.38;;;;;;;12.77;99.08;100509.78;5072883;28;20048;-34
2022/11/09 01:52:53;;;;;;;6.28;1.58;;;;;;;12.75;98.83;100504.63;5072589;28;20028;-34
2022/11/09 01:55:21;;;;;;;4.40;1.55;;;;;;;12.72;99.04;100510.53;5072761;28;20081;-34
2022/11/09 01:58:26;;;;;;;3.90;1.65;;;;;;;12.69;99.14;100499.38;5072911;28;20441;-34
2022/11/09 02:00:55;;;;;;;5.75;1.58;;;;;;;12.62;99.11;100489.53;5063873;28;20040;-34
2022/11/09 02:03:28;;;;;;;6.80;1.77;;;;;;;12.54;98.97;100476.44;5073498;28;20094;-34
2022/11/09 02:05:54;;;;;;;5.00;1.33;;;;;;;12.51;98.92;100479.63;5072650;28;20039;-34
2022/11/09 02:08:24;;;;;;;4.53;1.40;;;;;;;12.58;98.96;100501.13;5072978;28;20407;-34
2022/11/09 02:10:58;;;;;;;10.02;2.05;;;;;;;12.50;98.88;100491.56;5072795;28;20507;-34
2022/11/09 02:13:25;;;;;;;5.28;1.70;;;;;;;12.49;98.94;100487.22;5071409;28;20029;-34
2022/11/09 02:15:51;;;;;;;4.43;1.48;;;;;;;12.52;98.91;100494.03;5072839;28;20037;-34
2022/11/09 02:18:16;;;;;;;;;;;;;;;12.55;98.62;100497.06;5073897;28;20036;-33
2022/11/09 02:20:53;;;;;;;6.07;1.98;;;;;;;12.44;98.80;100491.72;5077366;28;20276;-33
2022/11/09 02:23:19;;;;;;;6.53;1.80;;;;;;;12.42;98.77;100494.72;5077343;28;20031;-34
2022/11/09 02:25:52;;;;;;;8.55;2.35;;;;;;;12.48;98.80;100503.72;5076454;28;20024;-34
2022/11/09 02:28:18;;;;;;;4.65;1.60;;;;;;;12.47;98.85;100500.19;5076767;28;20029;-34
2022/11/09 02:30:48;;;;;;;5.25;1.70;;;;;;;12.41;98.92;100497.69;5076107;28;20073;-34
2022/11/09 02:33:13;;;;;;;6.28;1.58;;;;;;;12.48;98.77;100506.44;5077036;28;20092;-33
2022/11/09 02:35:38;;;;;;;7.57;1.60;;;;;;;12.48;98.84;100520.81;5076301;28;20029;-33
2022/11/09 02:38:05;;;;;;;5.43;2.03;;;;;;;12.50;98.94;100512.44;5076039;28;20036;-34
2022/11/09 02:40:36;;;;;;;6.82;1.88;;;;;;;12.47;99.05;100504.81;5076394;28;20031;-34
2022/11/09 02:43:04;;;;;;;5.25;1.55;;;;;;;12.44;99.00;100503.41;5076532;28;20430;-33
2022/11/09 02:45:29;;;;;;;6.47;1.63;;;;;;;12.50;98.58;100509.72;5075793;28;20057;-33
2022/11/09 02:47:54;;;;;;;6.87;1.87;;;;;;;12.55;98.36;100502.47;5076010;28;20083;-34
2022/11/09 02:50:19;;;;;;;6.10;1.90;;;;;;;12.54;98.21;100503.56;5076162;28;20691;-33
2022/11/09 02:52:45;;;;;;;4.47;1.60;;;;;;;12.48;98.18;100484.75;5076030;28;20039;-34
2022/11/09 02:55:10;;;;;;;4.47;1.53;;;;;;;12.49;97.92;100492.66;5075926;28;20381;-34
2022/11/09 02:57:36;;;;;;;6.00;1.52;;;;;;;12.54;97.95;100490.00;5076154;28;20024;-34
2022/11/09 03:00:02;;;;;;;6.43;1.57;;;;;;;12.54;97.85;100498.13;5076020;28;20483;-34
2022/11/09 03:02:28;;;;;;;5.68;1.30;;;;;;;12.55;97.62;100493.53;5075968;28;20086;-34
2022/11/09 03:04:53;;;;;;;7.20;1.50;;;;;;;12.54;97.56;100490.00;5076130;28;20480;-34
2022/11/09 03:07:18;;;;;;;8.73;2.33;;;;;;;12.54;97.32;100492.72;5076062;28;20142;-34
2022/11/09 03:09:45;;;;;;;7.07;1.70;;;;;;;12.57;96.75;100503.03;5075625;28;20021;-34
2022/11/09 03:12:28;;;;;;;3.67;1.30;;;;;;;12.55;96.79;100504.38;5075297;28;20091;-33
2022/11/09 03:15:03;;;;;;;6.35;1.83;;;;;;;12.59;96.25;100525.31;5075929;28;20082;-33
2022/11/09 03:17:28;;;;;;;5.97;1.60;;;;;;;12.61;95.97;100525.88;5076047;28;20106;-33
2022/11/09 03:19:54;;;;;;;9.02;1.80;;;;;;;12.63;95.88;100531.03;5076008;28;20485;-34
2022/11/09 03:22:20;;;;;;;5.43;1.70;;;;;;;12.59;95.71;100535.31;5075542;28;20028;-33
2022/11/09 03:24:45;;;;;;;8.27;1.75;;;;;;;12.62;95.29;100529.41;5074094;28;20037;-33
2022/11/09 03:27:11;;;;;;;4.80;1.45;;;;;;;12.65;95.03;100530.81;5075484;28;20472;-33
2022/11/09 03:29:37;;;;;;;8.07;1.80;;;;;;;12.66;94.87;100535.97;5074837;28;20105;-34
2022/11/09 03:32:03;;;;;;;7.07;1.60;;;;;;;12.65;94.82;100544.38;5075046;28;20058;-33
2022/11/09 03:34:28;;;;;;;8.18;1.58;;;;;;;12.55;95.16;100535.03;5075463;28;20046;-34
2022/11/09 03:36:53;;;;;;;5.50;1.60;;;;;;;12.59;95.42;100541.59;5075373;28;20036;-34
2022/11/09 03:39:19;;;;;;;7.27;1.93;;;;;;;12.54;95.44;100538.81;5075453;28;20064;-33
2022/11/09 03:41:44;;;;;;;7.17;1.60;;;;;;;12.41;95.41;100528.31;5074799;28;20123;-33
2022/11/09 03:44:09;;;;;;;7.40;1.77;;;;;;;12.54;95.59;100554.25;5075614;28;20111;-34
2022/11/09 03:46:35;;;;;;;10.47;2.77;;;;;;;12.51;95.66;100552.88;5075113;28;20146;-33
2022/11/09 03:49:00;;;;;;;7.50;1.87;;;;;;;12.51;95.65;100565.63;5075903;28;20056;-34
2022/11/09 03:51:26;;;;;;;8.90;2.28;;;;;;;12.41;96.33;100566.28;5075516;28;20137;-33
2022/11/09 03:53:51;;;;;;;9.77;2.20;;;;;;;12.48;96.20;100571.53;5075549;28;20032;-33
2022/11/09 03:56:17;;;;;;;9.97;2.00;;;;;;;12.37;96.38;100557.00;5073402;28;20420;-34
2022/11/09 03:58:42;;;;;;;7.15;1.95;;;;;;;12.43;96.36;100576.88;5074463;28;20047;-34
2022/11/09 04:01:07;;;;;;;8.83;1.90;;;;;;;12.36;96.92;100574.34;5074914;28;20048;-34
2022/11/09 04:03:32;;;;;;;6.37;2.30;;;;;;;12.30;97.22;100568.03;5074671;28;20039;-34
2022/11/09 04:05:58;;;;;;;8.57;2.23;;;;;;;12.27;97.53;100570.41;5074786;28;20028;-34
2022/11/09 04:08:24;;;;;;;9.32;2.28;;;;;;;12.29;97.82;100585.34;5074599;28;20020;-34
2022/11/09 04:10:49;;;;;;;6.75;2.08;;;;;;;12.22;97.80;100590.13;5074478;28;20475;-33
2022/11/09 04:13:14;;;;;;;7.83;1.60;;;;;;;12.26;98.15;100599.44;5074566;28;20028;-33
2022/11/09 04:15:40;;;;;;;10.63;2.07;;;;;;;12.26;98.25;100593.19;5074313;28;20028;-33
2022/11/09 04:18:05;;;;;;;9.73;2.15;;;;;;;12.20;98.64;100605.84;5074662;28;20110;-33
2022/11/09 04:20:31;;;;;;;5.70;1.90;;;;;;;12.19;98.78;100598.75;5074394;28;20036;-33
2022/11/09 04:22:59;;;;;;;6.63;2.20;;;;;;;12.14;99.05;100600.56;5074279;28;20094;-33
2022/11/09 04:25:26;;;;;;;8.60;2.15;;;;;;;12.11;99.27;100607.31;5074136;28;20107;-33
2022/11/09 04:27:58;;;;;;;7.70;1.92;;;;;;;12.05;99.73;100606.44;5074095;28;20129;-33
2022/11/09 04:30:28;;;;;;;7.93;2.13;;;;;;;12.10;99.78;100616.50;5074078;28;20017;-33
2022/11/09 04:32:57;;;;;;;6.82;1.63;;;;;;;12.08;100.00;100614.03;5074054;28;20029;-33
2022/11/09 04:35:24;;;;;;;5.60;1.75;;;;;;;11.96;100.00;100591.63;5073872;28;20032;-33
2022/11/09 04:37:56;;;;;;;10.43;2.00;;;;;;;12.09;100.00;100612.97;5073711;28;20527;-33
2022/11/09 04:40:23;;;;;;;11.30;1.90;;;;;;;12.08;100.00;100611.34;5074205;28;20033;-33
2022/11/09 04:42:48;;;;;;;7.68;2.10;;;;;;;12.08;100.00;100618.66;5074115;28;20119;-33
2022/11/09 04:45:13;;;;;;;7.43;1.67;;;;;;;12.08;100.00;100616.75;5073420;28;20036;-33
2022/11/09 04:47:39;;;;;;;9.80;2.17;;;;;;;12.07;100.00;100617.00;5072896;28;20295;-33
2022/11/09 04:50:05;;;;;;;9.77;1.77;;;;;;;12.06;100.00;100620.78;5073999;28;20314;-34
2022/11/09 04:52:30;;;;;;;7.95;2.03;;;;;;;12.01;100.00;100621.53;5073632;28;20040;-34
2022/11/09 04:54:55;;;;;;;8.63;2.00;;;;;;;11.98;100.00;100616.59;5088821;28;20041;-33
2022/11/09 04:57:21;;;;;;;6.50;2.13;;;;;;;11.93;100.00;100612.97;5074112;28;20065;-34
2022/11/09 04:59:46;;;;;;;7.20;1.87;;;;;;;11.92;100.00;100614.06;5074116;28;20174;-33
2022/11/09 05:02:11;;;;;;;7.03;2.17;;;;;;;11.88;100.00;100605.59;5073823;28;20150;-34
2022/11/09 05:04:36;;;;;;;5.73;1.80;;;;;;;11.85;100.00;100604.16;5073151;28;20441;-33
2022/11/09 05:07:02;;;;;;;6.40;1.73;;;;;;;11.84;100.00;100604.44;5073319;28;20024;-34
2022/11/09 05:09:27;;;;;;;7.07;2.00;;;;;;;11.77;100.00;100598.31;5073494;28;20063;-34
2022/11/09 05:11:52;;;;;;;8.63;1.90;;;;;;;11.81;100.00;100610.31;5073549;28;20419;-34
2022/11/09 05:14:18;;;;;;;9.63;2.43;;;;;;;11.78;100.00;100611.63;5073628;28;20059;-34
2022/11/09 05:16:43;;;;;;;5.27;2.20;;;;;;;11.76;100.00;100612.91;5072947;28;20119;-33
2022/11/09 05:19:08;;;;;;;5.27;1.97;;;;;;;11.67;100.00;100601.69;5072967;28;20287;-33
2022/11/09 05:21:34;;;;;;;9.10;1.90;;;;;;;11.70;100.00;100611.19;5073464;28;20048;-33
2022/11/09 05:23:59;;;;;;;9.23;2.23;;;;;;;11.67;100.00;100609.00;5073905;28;20427;-34
2022/11/09 05:26:33;;;;;;;7.10;1.83;;;;;;;11.59;100.00;100610.19;5072907;28;20025;-34
2022/11/09 05:29:00;;;;;;;7.85;1.90;;;;;;;11.56;100.00;100603.34;5073344;28;20250;-33
2022/11/09 05:31:26;;;;;;;8.30;1.83;;;;;;;11.59;100.00;100612.91;5073419;28;20024;-33
2022/11/09 05:33:51;;;;;;;;;;;;;;;11.64;100.00;100612.16;5072367;28;20039;-34
2022/11/09 05:36:18;;;;;;;8.30;1.88;;;;;;;11.51;100.00;100605.16;5073299;28;19912;-33
2022/11/09 05:38:43;;;;;;;;;;;;;;;11.60;100.00;100611.81;5073887;28;20031;-34
2022/11/09 05:41:09;;;;;;;8.07;2.22;;;;;;;11.55;100.00;100622.56;5072894;28;19909;-34
2022/11/09 05:43:34;;;;;;;13.93;2.00;;;;;;;11.56;100.00;100613.38;5073178;28;20028;-34
2022/11/09 05:45:59;;;;;;;7.50;1.87;;;;;;;11.54;100.00;100619.03;5088342;28;20392;-33
2022/11/09 05:48:24;;;;;;;8.80;2.57;;;;;;;11.51;100.00;100605.97;5073048;28;20094;-33
2022/11/09 05:50:50;;;;;;;11.85;2.17;;;;;;;11.53;100.00;100619.28;5073285;28;20124;-33
2022/11/09 05:53:15;;;;;;;8.10;1.93;;;;;;;11.52;100.00;100621.19;5072392;28;20384;-33
2022/11/09 05:55:41;;;;;;;4.97;1.67;;;;;;;11.50;100.00;100617.88;5072474;28;20526;-34
2022/11/09 05:58:06;;;;;;;9.02;2.13;;;;;;;11.49;100.00;100615.41;5072462;28;20119;-34
2022/11/09 06:00:32;;;;;;;6.55;1.88;;;;;;;11.39;100.00;100605.22;5072748;28;20032;-33
2022/11/09 06:03:02;;;;;;;7.32;1.52;;;;;;;11.46;100.00;100615.91;5072818;28;20078;-34
2022/11/09 06:05:28;;;;;;;8.07;1.77;;;;;;;11.37;100.00;100606.50;5072901;28;20024;-34
2022/11/09 06:07:53;;;;;;;7.80;2.20;;;;;;;11.41;100.00;100615.81;5073232;28;20471;-33
2022/11/09 06:10:18;;;;;;;9.23;2.00;;;;;;;11.31;100.00;100597.47;5072703;28;20286;-34
2022/11/09 06:12:48;;;;;;;6.60;1.80;;;;;;;11.38;100.00;100617.13;5072736;28;20052;-33
2022/11/09 06:15:14;;;;;;;6.15;1.73;;;;;;;11.43;100.00;100628.06;5071470;28;20275;-34
2022/11/09 06:17:39;;;;;;;9.27;2.20;;;;;;;11.33;100.00;100607.00;5073509;28;20043;-33
2022/11/09 06:20:05;;;;;;;8.73;1.90;;;;;;;11.39;100.00;100626.06;5071227;28;20491;-33
2022/11/09 06:22:30;;;;;;;15.65;2.85;;;;;;;11.35;100.00;100629.25;5072598;28;20068;-33
2022/11/09 06:24:55;;;;;;;7.30;2.20;;;;;;;11.31;100.00;100624.56;5072718;28;20383;-33
2022/11/09 06:27:21;;;;;;;7.63;2.50;;;;;;;11.23;100.00;100619.53;5073258;28;20024;-33
2022/11/09 06:29:46;;;;;;;10.43;2.17;;;;;;;11.31;100.00;100638.09;5072454;28;20032;-34
2022/11/09 06:32:11;;;;;;;8.87;2.20;;;;;;;11.35;100.00;100639.25;5072539;28;20074;-33
2022/11/09 06:34:36;;;;;;;9.33;2.03;;;;;;;11.31;100.00;100627.25;5072912;28;20029;-33
2022/11/09 06:37:02;;;;;;;9.27;2.07;;;;;;;11.09;100.00;100614.41;5072677;28;20028;-33
2022/11/09 06:39:27;;;;;;;6.93;1.70;;;;;;;11.26;100.00;100644.22;5073077;28;20044;-34
2022/11/09 06:41:52;;;;;;;12.73;2.23;;;;;;;11.27;100.00;100639.63;5072149;28;20033;-34
2022/11/09 06:44:18;;;;;;;8.30;2.47;;;;;;;11.23;100.00;100638.47;5072715;28;20354;-34
2022/11/09 06:46:43;;;;;;;9.03;2.47;;;;;;;11.30;100.00;100644.56;5070589;28;20044;-33
2022/11/09 06:49:10;;;;;;;6.27;2.03;;;;;;;11.31;100.00;100638.91;5072808;28;20080;-34
2022/11/09 06:51:35;;;;;;;10.98;2.28;;;;;;;11.26;100.00;100635.28;5072160;28;20028;-34
2022/11/09 06:54:01;;;;;;;8.02;2.25;;;;;;;11.25;100.00;100630.94;5072488;28;20444;-33
2022/11/09 06:56:26;;;;;;;7.27;2.70;;;;;;;11.34;100.00;100648.44;5072185;28;20031;-34
2022/11/09 06:58:52;;;;;;;11.25;2.10;;;;;;;11.29;100.00;100638.34;5072269;28;20028;-33
2022/11/09 07:01:26;;;;;;;8.23;2.00;;;;;;;11.28;100.00;100644.81;5071836;28;20039;-33
2022/11/09 07:03:51;;;;;;;11.05;2.65;;;;;;;11.31;100.00;100649.72;5072345;28;20021;-33
2022/11/09 07:06:17;;;;;;;7.63;2.07;;;;;;;11.31;100.00;100649.72;5072988;28;20461;-33
2022/11/09 07:08:42;;;;;;;8.05;2.83;;;;;;;11.31;100.00;100647.03;5091391;28;20032;-33
2022/11/09 07:11:10;;;;;;;6.22;2.13;;;;;;;11.29;100.00;100651.06;5075453;28;20107;-33
2022/11/09 07:13:36;;;;;;;12.23;2.22;;;;;;;11.27;100.00;100664.84;5076372;28;20124;-33
2022/11/09 07:16:02;;;;;;;10.18;2.08;;;;;;;11.21;100.00;100651.41;5073731;28;20048;-33
2022/11/09 07:18:28;;;;;;;9.27;1.70;;;;;;;11.18;100.00;100654.63;5076563;28;20358;-33
2022/11/09 07:20:53;;;;;;;7.40;2.53;;;;;;;11.28;100.00;100671.06;5075463;28;20025;-33
2022/11/09 07:23:19;;;;;;;10.93;2.28;;;;;;;11.25;100.00;100658.00;5074773;28;20032;-33
2022/11/09 07:25:44;;;;;;;8.07;2.20;;;;;;;11.29;100.00;100673.53;5075571;28;20024;-33
2022/11/09 07:28:10;;;;;;;9.30;2.50;;;;;;;11.33;100.00;100673.88;5075450;28;20032;-33
2022/11/09 07:30:36;;;;;;;9.45;3.20;;;;;;;11.36;100.00;100665.25;5075442;28;20637;-34
2022/11/09 07:33:10;;;;;;;6.88;1.80;;;;;;;11.37;100.00;100675.03;5075520;28;20046;-33
2022/11/09 07:35:35;;;;;;;5.85;2.17;;;;;;;11.35;100.00;100672.56;5075900;28;20437;-33
2022/11/09 07:38:00;;;;;;;7.43;1.97;;;;;;;11.32;100.00;100664.09;5076020;28;20107;-33
2022/11/09 07:40:26;;;;;;;7.13;1.73;;;;;;;11.40;100.00;100676.44;5075500;28;20037;-33
2022/11/09 07:42:51;;;;;;;6.80;2.07;;;;;;;11.43;100.00;100673.25;5074954;28;20063;-33
2022/11/09 07:45:16;;;;;;;8.77;2.17;;;;;;;11.42;100.00;100677.84;5074937;28;20090;-33
2022/11/09 07:47:42;;;;;;;11.57;2.10;;;;;;;11.41;100.00;100676.19;5075339;28;20053;-33
2022/11/09 07:50:07;;;;;;;7.47;1.77;;;;;;;11.39;100.00;100672.91;5075215;28;20024;-33
2022/11/09 07:52:33;;;;;;;8.98;2.10;;;;;;;11.41;100.00;100680.78;5075773;28;20483;-33
2022/11/09 07:54:58;;;;;;;9.40;2.03;;;;;;;11.42;100.00;100677.84;5075117;28;20039;-33
2022/11/09 07:57:23;;;;;;;11.93;2.73;;;;;;;11.44;100.00;100685.72;5074798;28;20025;-33
2022/11/09 07:59:50;;;;;;;13.40;3.80;;;;;;;11.40;100.00;100679.97;5075042;28;20051;-33
2022/11/09 08:02:15;;;;;;;12.88;2.55;;;;;;;11.38;100.00;100687.50;5075503;28;20031;-33
2022/11/09 08:04:41;;;;;;;8.03;2.00;;;;;;;11.44;100.00;100702.78;5074830;28;20396;-33
2022/11/09 08:07:06;;;;;;;8.40;2.40;;;;;;;11.47;100.00;100702.31;5074624;28;20016;-33
2022/11/09 08:09:31;;;;;;;8.17;1.97;;;;;;;11.47;100.00;100706.91;5075367;28;20043;-34
2022/11/09 08:11:57;;;;;;;8.30;2.30;;;;;;;11.47;100.00;100706.91;5075251;28;20483;-33
2022/11/09 08:14:22;;;;;;;7.23;2.00;;;;;;;11.49;100.00;100711.00;5075044;28;20036;-33
2022/11/09 08:16:47;;;;;;;7.97;2.57;;;;;;;11.50;100.00;100714.53;5074916;28;20036;-33
2022/11/09 08:19:13;;;;;;;5.07;1.60;;;;;;;11.51;100.00;100718.88;5074622;28;20021;-33
2022/11/09 08:21:38;;;;;;;8.82;2.38;;;;;;;11.55;100.00;100715.47;5075266;28;20449;-33
2022/11/09 08:24:04;;;;;;;8.83;2.33;;;;;;;11.60;100.00;100710.16;5075028;28;20147;-34
2022/11/09 08:26:30;;;;;;;;;;;;;;;11.69;100.00;100717.91;5075372;28;20441;-33
2022/11/09 08:28:55;;;;;;;6.70;1.95;;;;;;;11.74;100.00;100718.81;5089843;28;20003;-34
2022/11/09 08:31:20;;;;;;;8.77;2.23;;;;;;;11.76;100.00;100714.00;5074162;28;20036;-34
2022/11/09 08:33:45;;;;;;;6.70;1.83;;;;;;;11.87;100.00;100723.16;5075222;28;20024;-34
2022/11/09 08:36:16;;;;;;;10.43;1.93;;;;;;;11.94;100.00;100734.66;5074299;28;20384;-34
2022/11/09 08:38:42;;;;;;;6.63;2.00;;;;;;;11.95;100.00;100735.47;5074005;28;20468;-34
2022/11/09 08:41:08;;;;;;;9.10;1.98;;;;;;;12.08;100.00;100729.78;5074110;28;20469;-34
2022/11/09 08:43:34;;;;;;;7.82;2.10;;;;;;;12.13;100.00;100731.75;5073920;28;20082;-34
2022/11/09 08:45:59;;;;;;;9.45;2.30;;;;;;;12.16;100.00;100742.94;5073915;28;20040;-34
2022/11/09 08:48:25;;;;;;;9.45;2.17;;;;;;;12.21;100.00;100736.78;5074613;28;20057;-34
2022/11/09 08:50:55;;;;;;;7.93;2.45;;;;;;;12.23;100.00;100729.22;5072339;28;20488;-34
2022/11/09 08:53:22;;;;;;;9.25;2.20;;;;;;;12.32;100.00;100742.13;5073000;28;20153;-34
2022/11/09 08:55:47;;;;;;;6.95;2.42;;;;;;;12.35;100.00;100740.84;5073839;28;20408;-34
2022/11/09 08:58:13;;;;;;;7.88;2.35;;;;;;;12.36;99.81;100748.72;5074335;28;20043;-34
2022/11/09 09:00:38;;;;;;;8.63;2.07;;;;;;;12.28;100.00;100734.72;5073529;28;20051;-34
2022/11/09 09:03:05;;;;;;;9.20;2.70;;;;;;;12.30;99.49;100732.63;5074313;28;20247;-34
2022/11/09 09:05:31;;;;;;;8.00;2.28;;;;;;;12.36;99.02;100726.19;5073784;28;20040;-34
2022/11/09 09:07:58;;;;;;;7.47;1.88;;;;;;;12.44;99.42;100730.38;5074361;28;20031;-34
2022/11/09 09:10:23;;;;;;;9.30;2.10;;;;;;;12.54;98.55;100739.53;5073854;28;20111;-34
2022/11/09 09:12:49;;;;;;;6.20;1.98;;;;;;;12.59;97.93;100739.59;5073650;28;20186;-34
2022/11/09 09:15:14;;;;;;;9.63;2.23;;;;;;;12.55;97.66;100733.03;5073765;28;20036;-34
2022/11/09 09:17:39;;;;;;;8.93;2.95;;;;;;;12.67;97.94;100742.97;5074073;28;20036;-34
2022/11/09 09:20:05;;;;;;;6.40;1.90;;;;;;;12.66;96.38;100735.91;5073630;28;20050;-34
2022/11/09 09:22:32;;;;;;;8.10;1.98;;;;;;;12.70;96.74;100743.31;5073765;28;20028;-34
2022/11/09 09:24:57;;;;;;;5.60;1.95;;;;;;;12.71;96.75;100744.94;5073616;28;20029;-34
2022/11/09 09:27:22;;;;;;;9.68;2.00;;;;;;;12.78;96.40;100742.88;5073478;28;20033;-34
2022/11/09 09:29:48;;;;;;;8.90;2.73;;;;;;;12.83;95.90;100745.69;5072786;28;20078;-34
2022/11/09 09:32:13;;;;;;;11.63;2.10;;;;;;;12.81;94.98;100752.41;5073320;28;20032;-34
2022/11/09 09:34:38;;;;;;;8.73;2.40;;;;;;;12.78;95.55;100742.88;5073213;28;20274;-34
2022/11/09 09:37:03;;;;;;;9.47;2.00;;;;;;;12.84;94.35;100755.47;5073205;28;20169;-34
2022/11/09 09:39:29;;;;;;;8.93;1.83;;;;;;;12.83;94.60;100766.53;5072936;28;20516;-34
2022/11/09 09:41:56;;;;;;;5.97;1.50;;;;;;;12.85;94.81;100757.09;5073950;28;20115;-34
2022/11/09 09:44:37;;;;;;;7.20;2.08;;;;;;;12.89;94.06;100760.97;5072930;28;20020;-34
2022/11/09 09:47:38;;;;;;;9.52;2.15;;;;;;;12.89;94.17;100752.81;5073141;28;20041;-34
2022/11/09 09:50:11;;;;;;;6.53;2.20;;;;;;;13.01;92.87;100774.44;5073976;28;20098;-34
2022/11/09 09:53:01;;;;;;;11.93;2.30;;;;;;;13.05;93.03;100777.47;5073673;28;20056;-34
2022/11/09 09:55:52;;;;;;;5.70;1.80;;;;;;;13.13;92.78;100775.16;5073333;28;20052;-34
2022/11/09 09:58:22;;;;;;;6.88;1.92;;;;;;;13.21;92.11;100783.94;5073098;28;20086;-34
2022/11/09 10:01:04;;;;;;;9.27;2.17;;;;;;;13.21;91.24;100787.47;5073690;28;20040;-34
2022/11/09 10:03:30;;;;;;;8.00;1.70;;;;;;;13.22;91.26;100788.34;5073648;28;20037;-34
2022/11/09 10:06:17;;;;;;;10.93;2.28;;;;;;;13.22;91.68;100794.56;5072630;28;20025;-34
2022/11/09 10:09:05;;;;;;;7.63;2.00;;;;;;;13.25;90.98;100788.66;5073254;28;20358;-34
2022/11/09 10:12:00;;;;;;;8.05;1.90;;;;;;;13.34;91.14;100795.31;5073710;28;20108;-34
2022/11/09 10:14:47;;;;;;;8.05;2.33;;;;;;;13.42;89.71;100790.50;5072864;28;20024;-34
2022/11/09 10:17:38;;;;;;;7.38;1.85;;;;;;;13.55;89.58;100790.97;5073150;28;20024;-34
2022/11/09 10:20:15;;;;;;;9.18;1.98;;;;;;;13.47;89.72;100779.72;5072815;28;20465;-34
2022/11/09 10:23:00;;;;;;;10.40;2.45;;;;;;;13.43;89.44;100784.03;5072848;28;20028;-33
2022/11/09 10:25:28;;;;;;;8.88;2.35;;;;;;;13.38;88.18;100782.88;5072869;28;20079;-33
2022/11/09 10:28:07;;;;;;;7.78;1.92;;;;;;;13.47;87.43;100802.28;5071517;28;20025;-33
2022/11/09 10:30:33;;;;;;;11.32;2.78;;;;;;;13.38;88.58;100791.03;5073062;28;20024;-33
2022/11/09 10:33:13;;;;;;;9.27;2.17;;;;;;;13.44;87.68;100797.34;5073293;28;20074;-34
2022/11/09 10:35:44;;;;;;;6.50;2.13;;;;;;;13.45;87.00;100800.88;5072421;28;20036;-33
2022/11/09 10:38:17;;;;;;;11.80;2.42;;;;;;;13.46;87.62;100800.63;5072991;28;20035;-34
2022/11/09 10:40:57;;;;;;;12.57;2.35;;;;;;;13.44;87.11;100794.63;5075752;28;20025;-34
2022/11/09 10:43:23;;;;;;;6.13;1.70;;;;;;;13.36;86.67;100795.88;5076962;28;20048;-34
2022/11/09 10:46:03;;;;;;;9.35;2.08;;;;;;;13.38;87.45;100792.91;5076374;28;20465;-33
2022/11/09 10:48:36;;;;;;;9.55;2.25;;;;;;;13.44;86.00;100813.66;5076409;28;20056;-34
2022/11/09 10:51:02;;;;;;;7.63;1.90;;;;;;;13.53;86.16;100817.56;5076833;28;20047;-34
2022/11/09 10:53:29;;;;;;;7.90;2.15;;;;;;;13.61;86.60;100829.88;5076280;28;20452;-33
2022/11/09 10:56:14;;;;;;;7.70;1.90;;;;;;;13.55;86.23;100820.03;5076025;28;20039;-33
2022/11/09 10:58:46;;;;;;;8.77;2.03;;;;;;;13.39;86.95;100794.56;5076923;28;20376;-33
2022/11/09 11:01:16;;;;;;;10.65;1.92;;;;;;;13.47;87.43;100826.72;5076288;28;20108;-33
2022/11/09 11:03:43;;;;;;;9.00;2.03;;;;;;;13.38;85.82;100815.47;5076231;28;20393;-33
2022/11/09 11:06:14;;;;;;;6.18;1.85;;;;;;;13.36;86.02;100816.78;5076548;28;20505;-33
2022/11/09 11:08:43;;;;;;;7.80;2.17;;;;;;;13.35;86.26;100826.81;5075854;28;20033;-33
2022/11/09 11:11:19;;;;;;;8.25;1.70;;;;;;;13.28;85.27;100812.63;5075929;28;20035;-34
2022/11/09 11:13:44;;;;;;;8.10;1.98;;;;;;;13.31;85.26;100811.28;5076006;28;20043;-33
2022/11/09 11:16:15;;;;;;;6.35;1.75;;;;;;;13.36;85.50;100816.78;5075885;28;20115;-34
2022/11/09 11:18:46;;;;;;;7.13;1.70;;;;;;;13.43;84.68;100827.47;5076556;28;20120;-33
2022/11/09 11:21:17;;;;;;;8.98;2.00;;;;;;;13.43;83.72;100825.59;5076308;28;20021;-34
2022/11/09 11:23:42;;;;;;;8.55;1.80;;;;;;;13.44;83.66;100821.78;5075953;28;20104;-34
2022/11/09 11:26:29;;;;;;;9.02;2.10;;;;;;;13.38;83.38;100817.38;5076121;28;20123;-33